Time;durP1;ratioP1;P1;durP2;ratioP2;P2;SDS_P1;SDS_P2;PMS_P1;PMS_P2;Temp;Humidity;BMP_temperature;BMP_pressure;BME280_temperature;BME280_humidity;BME280_pressure;Samples;Min_cycle;Max_cycle;Signal;HPM_P1;HPM_P2
2022/08/02 00:00:01;;;;;;;10.43;2.28;;;;;;;;;;5025097;28;20045;-64
2022/08/02 00:02:29;;;;;;;9.48;1.80;;;;;;;;;;5021365;28;20049;-64
2022/08/02 00:04:56;;;;;;;11.35;2.30;;;;;;;;;;5018838;28;20046;-64
2022/08/02 00:07:25;;;;;;;12.63;2.30;;;;;;;;;;5023159;28;20057;-65
2022/08/02 00:09:52;;;;;;;14.32;2.72;;;;;;;;;;5023104;28;20058;-64
2022/08/02 00:12:19;;;;;;;10.60;2.15;;;;;;;;;;5021139;28;20045;-64
2022/08/02 00:14:46;;;;;;;8.23;1.80;;;;;;;;;;5015717;28;20060;-64
2022/08/02 00:17:13;;;;;;;8.15;2.60;;;;;;;;;;5021234;28;20053;-64
2022/08/02 00:19:41;;;;;;;10.60;2.58;;;;;;;;;;5013003;28;20046;-65
2022/08/02 00:22:08;;;;;;;6.95;2.55;;;;;;;;;;5017104;28;20532;-64
2022/08/02 00:24:36;;;;;;;8.48;2.05;;;;;;;;;;5020865;28;20056;-64
2022/08/02 00:27:04;;;;;;;8.25;2.10;;;;;;;;;;5020571;28;20049;-64
2022/08/02 00:29:31;;;;;;;8.95;1.90;;;;;;;;;;5021951;28;20755;-65
2022/08/02 00:31:58;;;;;;;8.07;1.95;;;;;;;;;;5021512;28;20246;-64
2022/08/02 00:34:25;;;;;;;7.15;2.20;;;;;;;;;;5020932;28;20050;-64
2022/08/02 00:36:53;;;;;;;9.52;2.05;;;;;;;;;;5023473;28;20108;-64
2022/08/02 00:39:20;;;;;;;7.97;2.00;;;;;;;;;;5024579;28;20159;-64
2022/08/02 00:41:49;;;;;;;6.22;1.80;;;;;;;;;;5022308;28;20045;-65
2022/08/02 00:44:16;;;;;;;6.47;1.98;;;;;;;;;;5021431;28;20587;-64
2022/08/02 00:46:43;;;;;;;9.38;2.17;;;;;;;;;;5018541;28;20081;-64
2022/08/02 00:49:11;;;;;;;11.27;2.25;;;;;;;;;;5024986;28;20081;-64
2022/08/02 00:51:38;;;;;;;10.43;2.50;;;;;;;;;;5021951;28;20041;-64
2022/08/02 00:54:05;;;;;;;7.38;2.08;;;;;;;;;;5024171;28;20117;-64
2022/08/02 00:56:33;;;;;;;10.88;2.47;;;;;;;;;;5018103;28;20111;-64
2022/08/02 00:59:02;;;;;;;10.05;2.13;;;;;;;;;;5019786;28;20524;-64
2022/08/02 01:01:38;;;;;;;11.60;2.53;;;;;;;;;;5020758;28;20049;-64
2022/08/02 01:04:06;;;;;;;12.13;2.58;;;;;;;;;;5018995;28;20129;-64
2022/08/02 01:06:33;;;;;;;10.00;2.38;;;;;;;;;;5021372;28;20103;-65
2022/08/02 01:09:00;;;;;;;8.73;2.00;;;;;;;;;;5019861;28;20065;-64
2022/08/02 01:11:28;;;;;;;9.90;2.60;;;;;;;;;;5020233;28;20041;-64
2022/08/02 01:13:56;;;;;;;11.02;2.72;;;;;;;;;;5024018;28;20049;-64
2022/08/02 01:16:26;;;;;;;8.93;2.28;;;;;;;;;;5025223;28;20512;-64
2022/08/02 01:19:00;;;;;;;11.38;2.30;;;;;;;;;;5025164;28;20100;-64
2022/08/02 01:21:41;;;;;;;12.00;2.50;;;;;;;;;;4998513;28;20173;-64
2022/08/02 01:24:21;;;;;;;8.20;2.53;;;;;;;;;;4999949;28;20099;-64
2022/08/02 01:26:51;;;;;;;11.52;2.53;;;;;;;;;;5020293;28;20084;-64
2022/08/02 01:29:23;;;;;;;11.50;2.92;;;;;;;;;;5017010;28;20085;-64
2022/08/02 01:31:54;;;;;;;9.52;2.47;;;;;;;;;;5021301;28;20077;-64
2022/08/02 01:34:25;;;;;;;12.27;2.47;;;;;;;;;;5019500;28;20053;-64
2022/08/02 01:36:54;;;;;;;11.90;2.90;;;;;;;;;;5020223;28;20123;-64
2022/08/02 01:39:24;;;;;;;7.72;2.30;;;;;;;;;;5014954;28;20054;-64
2022/08/02 01:41:52;;;;;;;10.20;2.30;;;;;;;;;;5019333;28;20132;-64
2022/08/02 01:44:22;;;;;;;11.02;2.63;;;;;;;;;;5019618;28;20094;-64
2022/08/02 01:46:50;;;;;;;13.43;2.60;;;;;;;;;;5020707;28;20053;-64
2022/08/02 01:49:20;;;;;;;11.50;2.40;;;;;;;;;;5003720;28;20060;-64
2022/08/02 01:54:34;;;;;;;10.30;2.25;;;;;;;;;;5018758;28;20077;-64
2022/08/02 01:57:03;;;;;;;8.95;2.45;;;;;;;;;;5018170;28;20057;-64
2022/08/02 01:59:32;;;;;;;10.63;2.53;;;;;;;;;;5013909;28;20393;-64
2022/08/02 02:02:00;;;;;;;10.13;2.92;;;;;;;;;;5003095;28;20061;-64
2022/08/02 02:04:28;;;;;;;9.57;2.42;;;;;;;;;;5020788;28;20050;-64
2022/08/02 02:06:56;;;;;;;9.93;2.90;;;;;;;;;;5018008;28;20382;-64
2022/08/02 02:09:26;;;;;;;10.48;2.78;;;;;;;;;;5013275;28;20678;-64
2022/08/02 02:11:54;;;;;;;14.07;2.88;;;;;;;;;;5024760;28;20535;-64
2022/08/02 02:14:21;;;;;;;13.13;2.80;;;;;;;;;;5021650;28;20542;-64
2022/08/02 02:16:50;;;;;;;13.43;2.67;;;;;;;;;;5016971;28;20065;-64
2022/08/02 02:19:19;;;;;;;9.95;2.35;;;;;;;;;;5025626;28;20071;-64
2022/08/02 02:21:46;;;;;;;12.45;2.60;;;;;;;;;;5023700;28;20041;-64
2022/08/02 02:24:13;;;;;;;10.85;2.53;;;;;;;;;;5025498;28;20564;-64
2022/08/02 02:26:42;;;;;;;9.75;2.70;;;;;;;;;;5005888;28;20050;-64
2022/08/02 02:29:10;;;;;;;9.23;2.42;;;;;;;;;;5022790;28;20088;-64
2022/08/02 02:31:39;;;;;;;13.40;2.95;;;;;;;;;;5025886;28;20076;-64
2022/08/02 02:34:10;;;;;;;11.80;2.25;;;;;;;;;;5022445;28;20041;-64
2022/08/02 02:36:39;;;;;;;10.52;2.80;;;;;;;;;;5005791;28;20560;-65
2022/08/02 02:39:06;;;;;;;15.38;3.05;;;;;;;;;;5022855;28;20700;-64
2022/08/02 02:41:34;;;;;;;8.65;2.60;;;;;;;;;;5020790;28;20502;-64
2022/08/02 02:44:02;;;;;;;13.85;2.83;;;;;;;;;;5009729;28;20056;-64
2022/08/02 02:46:30;;;;;;;11.18;2.50;;;;;;;;;;5025527;28;20046;-64
2022/08/02 02:48:58;;;;;;;10.38;2.55;;;;;;;;;;5002314;28;20148;-64
2022/08/02 02:51:26;;;;;;;9.30;2.42;;;;;;;;;;5027233;28;20049;-64
2022/08/02 02:53:54;;;;;;;10.00;2.60;;;;;;;;;;5018252;28;20065;-64
2022/08/02 02:56:22;;;;;;;9.98;2.20;;;;;;;;;;5023333;28;20064;-64
2022/08/02 02:58:49;;;;;;;14.02;2.97;;;;;;;;;;5025732;28;20505;-64
2022/08/02 03:01:30;;;;;;;9.82;2.40;;;;;;;;;;5021670;28;20059;-64
2022/08/02 03:03:58;;;;;;;10.27;2.65;;;;;;;;;;5023409;28;20128;-64
2022/08/02 03:06:27;;;;;;;11.52;2.75;;;;;;;;;;5019996;28;20064;-64
2022/08/02 03:08:54;;;;;;;12.07;2.58;;;;;;;;;;5023068;28;20060;-64
2022/08/02 03:11:22;;;;;;;10.20;2.65;;;;;;;;;;5021311;28;20053;-65
2022/08/02 03:13:49;;;;;;;10.30;2.60;;;;;;;;;;5020315;28;20058;-64
2022/08/02 03:16:16;;;;;;;11.13;2.30;;;;;;;;;;5024631;28;20042;-64
2022/08/02 03:18:44;;;;;;;10.70;2.50;;;;;;;;;;5020108;28;20053;-64
2022/08/02 03:21:12;;;;;;;18.90;2.90;;;;;;;;;;5018185;28;20056;-64
2022/08/02 03:23:41;;;;;;;12.38;2.78;;;;;;;;;;5020709;28;20516;-64
2022/08/02 03:26:09;;;;;;;11.18;2.30;;;;;;;;;;5021187;28;20449;-64
2022/08/02 03:28:36;;;;;;;9.80;2.67;;;;;;;;;;5008837;28;20057;-64
2022/08/02 03:31:04;;;;;;;6.57;2.38;;;;;;;;;;5002675;28;20058;-64
2022/08/02 03:33:32;;;;;;;10.75;2.47;;;;;;;;;;5027108;28;20057;-64
2022/08/02 03:36:00;;;;;;;8.57;2.33;;;;;;;;;;5008100;28;20115;-64
2022/08/02 03:38:27;;;;;;;13.88;2.58;;;;;;;;;;5008343;28;20057;-65
2022/08/02 03:40:56;;;;;;;15.48;2.80;;;;;;;;;;5019113;28;20421;-64
2022/08/02 03:43:24;;;;;;;9.90;2.50;;;;;;;;;;5015412;28;20216;-64
2022/08/02 03:45:52;;;;;;;13.13;2.80;;;;;;;;;;5023288;28;20060;-64
2022/08/02 03:48:19;;;;;;;9.77;2.85;;;;;;;;;;5001073;28;20445;-64
2022/08/02 03:50:47;;;;;;;12.98;2.60;;;;;;;;;;5019983;28;20053;-64
2022/08/02 03:53:15;;;;;;;12.05;2.50;;;;;;;;;;5023826;28;20052;-64
2022/08/02 03:55:42;;;;;;;7.82;2.33;;;;;;;;;;5020629;28;20061;-64
2022/08/02 03:58:17;;;;;;;8.05;2.40;;;;;;;;;;5024882;28;20053;-64
2022/08/02 04:00:44;;;;;;;12.02;3.60;;;;;;;;;;5020199;28;20408;-64
2022/08/02 04:03:11;;;;;;;10.05;2.90;;;;;;;;;;5024336;28;20516;-64
2022/08/02 04:05:38;;;;;;;12.82;2.95;;;;;;;;;;5019305;28;20041;-64
2022/08/02 04:08:06;;;;;;;9.57;2.92;;;;;;;;;;5004883;28;20050;-64
2022/08/02 04:11:29;;;;;;;7.35;2.45;;;;;;;;;;5024158;28;20056;-64
2022/08/02 04:13:23;;;;;;;8.43;3.38;;;;;;;;;;5016095;28;20524;-64
2022/08/02 04:15:54;;;;;;;9.82;2.40;;;;;;;;;;5019915;28;20045;-64
2022/08/02 04:18:21;;;;;;;11.40;2.97;;;;;;;;;;5002455;28;20061;-64
2022/08/02 04:20:49;;;;;;;10.18;2.10;;;;;;;;;;5022197;28;20046;-64
2022/08/02 04:23:18;;;;;;;11.82;2.63;;;;;;;;;;5019306;28;20057;-64
2022/08/02 04:25:46;;;;;;;13.38;3.22;;;;;;;;;;5013910;28;20808;-65
2022/08/02 04:28:13;;;;;;;10.05;2.70;;;;;;;;;;5020691;28;20052;-64
2022/08/02 04:30:42;;;;;;;8.27;2.40;;;;;;;;;;5022792;28;20459;-64
2022/08/02 04:33:09;;;;;;;8.93;2.78;;;;;;;;;;5021891;28;20147;-64
2022/08/02 04:35:37;;;;;;;15.05;3.35;;;;;;;;;;5024826;28;20045;-64
2022/08/02 04:38:04;;;;;;;11.27;2.55;;;;;;;;;;5021092;28;20057;-64
2022/08/02 04:40:32;;;;;;;14.02;3.17;;;;;;;;;;5016076;28;20042;-64
2022/08/02 04:42:59;;;;;;;11.20;2.53;;;;;;;;;;5018248;28;20697;-64
2022/08/02 04:45:27;;;;;;;12.13;2.60;;;;;;;;;;5021880;28;20057;-64
2022/08/02 04:47:56;;;;;;;10.45;2.80;;;;;;;;;;5019192;28;20057;-65
2022/08/02 04:50:23;;;;;;;7.97;2.40;;;;;;;;;;5021113;28;20045;-64
2022/08/02 04:52:50;;;;;;;14.88;2.78;;;;;;;;;;5020798;28;20041;-65
2022/08/02 04:55:17;;;;;;;11.82;2.78;;;;;;;;;;5018831;28;20057;-64
2022/08/02 04:57:57;;;;;;;10.73;2.67;;;;;;;;;;5016434;28;20100;-65
2022/08/02 05:00:24;;;;;;;9.30;2.97;;;;;;;;;;5018677;28;20120;-64
2022/08/02 05:02:52;;;;;;;8.50;2.40;;;;;;;;;;5017644;28;20057;-64
2022/08/02 05:05:21;;;;;;;8.27;2.58;;;;;;;;;;5020692;28;20111;-64
2022/08/02 05:07:48;;;;;;;9.95;2.60;;;;;;;;;;5016632;28;20482;-64
2022/08/02 05:10:15;;;;;;;12.38;3.05;;;;;;;;;;5023985;28;20463;-64
2022/08/02 05:12:43;;;;;;;10.93;3.22;;;;;;;;;;5022252;28;20045;-64
2022/08/02 05:15:11;;;;;;;14.32;2.83;;;;;;;;;;5022057;28;20058;-64
2022/08/02 05:17:39;;;;;;;9.35;2.70;;;;;;;;;;5018922;28;20107;-64
2022/08/02 05:20:06;;;;;;;13.40;2.90;;;;;;;;;;5016895;28;20731;-64
2022/08/02 05:22:35;;;;;;;12.55;3.10;;;;;;;;;;5022558;28;20049;-65
2022/08/02 05:25:02;;;;;;;9.00;2.33;;;;;;;;;;5018853;28;20049;-64
2022/08/02 05:27:31;;;;;;;13.70;2.92;;;;;;;;;;5025685;28;20051;-65
2022/08/02 05:29:59;;;;;;;8.35;2.25;;;;;;;;;;5024596;28;20506;-64
2022/08/02 05:32:26;;;;;;;12.77;2.28;;;;;;;;;;5017363;28;20057;-64
2022/08/02 05:34:53;;;;;;;14.10;2.60;;;;;;;;;;5024134;28;20507;-64
2022/08/02 05:37:20;;;;;;;7.75;2.10;;;;;;;;;;5018484;28;20046;-64
2022/08/02 05:39:49;;;;;;;8.70;2.38;;;;;;;;;;5012248;28;20429;-64
2022/08/02 05:42:16;;;;;;;10.82;2.38;;;;;;;;;;5018307;28;20046;-64
2022/08/02 05:44:43;;;;;;;8.32;2.72;;;;;;;;;;5016381;28;20045;-65
2022/08/02 05:47:11;;;;;;;8.45;2.20;;;;;;;;;;5017940;28;20056;-65
2022/08/02 05:49:38;;;;;;;12.88;2.30;;;;;;;;;;5017074;28;20107;-64
2022/08/02 05:52:09;;;;;;;9.57;2.70;;;;;;;;;;5024971;28;20045;-64
2022/08/02 05:54:39;;;;;;;7.88;1.80;;;;;;;;;;5023126;28;20501;-64
2022/08/02 05:57:11;;;;;;;8.82;2.20;;;;;;;;;;5026864;28;20061;-65
2022/08/02 05:59:41;;;;;;;8.90;2.08;;;;;;;;;;5024522;28;20056;-64
2022/08/02 06:02:12;;;;;;;8.95;2.00;;;;;;;;;;5026990;28;20500;-65
2022/08/02 06:04:45;;;;;;;14.85;2.40;;;;;;;;;;5027939;28;20053;-65
2022/08/02 06:07:13;;;;;;;7.00;2.08;;;;;;;;;;5004567;28;20104;-64
2022/08/02 06:09:41;;;;;;;7.70;2.15;;;;;;;;;;5008896;28;20053;-64
2022/08/02 06:12:12;;;;;;;8.63;2.35;;;;;;;;;;5007900;28;20057;-65
2022/08/02 06:14:40;;;;;;;12.43;1.98;;;;;;;;;;5027878;28;20110;-64
2022/08/02 06:17:07;;;;;;;10.13;2.20;;;;;;;;;;5021301;28;20048;-64
2022/08/02 06:19:34;;;;;;;4.38;1.67;;;;;;;;;;5022914;28;20050;-65
2022/08/02 06:22:13;;;;;;;7.28;1.88;;;;;;;;;;5023712;28;20088;-65
2022/08/02 06:24:41;;;;;;;6.70;1.55;;;;;;;;;;5002386;28;20728;-65
2022/08/02 06:27:10;;;;;;;5.60;1.88;;;;;;;;;;5024416;28;20049;-65
2022/08/02 06:29:37;;;;;;;8.48;2.15;;;;;;;;;;5025455;28;20092;-65
2022/08/02 06:32:05;;;;;;;6.40;2.08;;;;;;;;;;5026411;28;20053;-65
2022/08/02 06:34:36;;;;;;;5.25;1.73;;;;;;;;;;5023771;28;20069;-65
2022/08/02 06:37:11;;;;;;;6.80;1.98;;;;;;;;;;5009880;28;20141;-65
2022/08/02 06:39:44;;;;;;;8.68;2.03;;;;;;;;;;5023427;28;20042;-65
2022/08/02 06:42:13;;;;;;;6.72;1.95;;;;;;;;;;5026810;28;20052;-65
2022/08/02 06:44:40;;;;;;;8.38;1.90;;;;;;;;;;5019415;28;20135;-65
2022/08/02 06:47:08;;;;;;;6.93;1.60;;;;;;;;;;5020103;28;20554;-65
2022/08/02 06:49:35;;;;;;;8.07;2.08;;;;;;;;;;5020498;28;20049;-64
2022/08/02 06:52:03;;;;;;;5.20;1.60;;;;;;;;;;5025850;28;20060;-65
2022/08/02 06:54:30;;;;;;;6.00;1.58;;;;;;;;;;5018498;28;20123;-64
2022/08/02 06:56:58;;;;;;;6.95;1.83;;;;;;;;;;5028875;28;20054;-65
2022/08/02 06:59:26;;;;;;;5.47;1.70;;;;;;;;;;5024073;28;20053;-65
2022/08/02 07:01:54;;;;;;;8.27;1.83;;;;;;;;;;5023319;28;20358;-65
2022/08/02 07:04:21;;;;;;;8.07;1.83;;;;;;;;;;5005606;28;20045;-65
2022/08/02 07:06:48;;;;;;;6.78;1.35;;;;;;;;;;5025698;28;20404;-65
2022/08/02 07:09:15;;;;;;;8.45;1.60;;;;;;;;;;5024576;28;20053;-65
2022/08/02 07:11:42;;;;;;;6.50;1.58;;;;;;;;;;5026226;28;20677;-65
2022/08/02 07:14:10;;;;;;;9.43;2.05;;;;;;;;;;5023405;28;20400;-65
2022/08/02 07:16:38;;;;;;;6.72;1.90;;;;;;;;;;5007218;28;20061;-64
2022/08/02 07:19:05;;;;;;;10.00;1.88;;;;;;;;;;5007984;28;20075;-65
2022/08/02 07:21:33;;;;;;;7.03;1.85;;;;;;;;;;5025447;28;20044;-64
2022/08/02 07:24:00;;;;;;;7.22;1.55;;;;;;;;;;5009291;28;20050;-65
2022/08/02 07:26:27;;;;;;;10.70;2.13;;;;;;;;;;5009484;28;20065;-65
2022/08/02 07:28:55;;;;;;;6.18;1.58;;;;;;;;;;5024911;28;20049;-65
2022/08/02 07:31:22;;;;;;;8.15;1.55;;;;;;;;;;5007565;28;20056;-65
2022/08/02 07:33:50;;;;;;;6.93;1.70;;;;;;;;;;5026730;28;20088;-64
2022/08/02 07:36:18;;;;;;;8.75;2.03;;;;;;;;;;5006041;28;20058;-65
2022/08/02 07:38:45;;;;;;;5.00;1.50;;;;;;;;;;5023715;28;20695;-65
2022/08/02 07:41:12;;;;;;;4.40;1.50;;;;;;;;;;5004561;28;20147;-65
2022/08/02 07:43:39;;;;;;;5.72;1.63;;;;;;;;;;5021270;28;20049;-65
2022/08/02 07:46:06;;;;;;;4.05;1.48;;;;;;;;;;5025353;28;20041;-65
2022/08/02 07:48:33;;;;;;;10.65;1.80;;;;;;;;;;5026172;28;20707;-65
2022/08/02 07:51:02;;;;;;;3.55;1.52;;;;;;;;;;5007935;28;20068;-65
2022/08/02 07:53:29;;;;;;;8.48;1.60;;;;;;;;;;5021338;28;20053;-65
2022/08/02 07:55:56;;;;;;;6.97;1.67;;;;;;;;;;5021663;28;20773;-65
2022/08/02 07:58:24;;;;;;;6.53;1.63;;;;;;;;;;5006107;28;20107;-65
2022/08/02 08:00:51;;;;;;;6.25;1.38;;;;;;;;;;5000593;28;20057;-65
2022/08/02 08:03:18;;;;;;;5.18;1.63;;;;;;;;;;5022755;28;20056;-65
2022/08/02 08:05:45;;;;;;;5.57;1.63;;;;;;;;;;5026601;28;20050;-65
2022/08/02 08:08:14;;;;;;;6.65;1.70;;;;;;;;;;5017270;28;20050;-65
2022/08/02 08:10:41;;;;;;;8.38;1.85;;;;;;;;;;5003937;28;20062;-65
2022/08/02 08:13:09;;;;;;;9.60;2.05;;;;;;;;;;5016010;28;20058;-65
2022/08/02 08:15:36;;;;;;;10.63;1.98;;;;;;;;;;5022879;28;20048;-65
2022/08/02 08:18:03;;;;;;;8.35;2.00;;;;;;;;;;5024439;28;20052;-64
2022/08/02 08:20:30;;;;;;;8.48;1.70;;;;;;;;;;5016554;28;20050;-65
2022/08/02 08:22:57;;;;;;;6.90;1.80;;;;;;;;;;5024315;28;20053;-65
2022/08/02 08:25:26;;;;;;;7.45;2.30;;;;;;;;;;5021115;28;20057;-65
2022/08/02 08:27:53;;;;;;;5.43;2.08;;;;;;;;;;5020278;28;20488;-65
2022/08/02 08:30:21;;;;;;;6.07;2.22;;;;;;;;;;5019578;28;20053;-65
2022/08/02 08:32:49;;;;;;;8.98;2.17;;;;;;;;;;5023423;28;20127;-65
2022/08/02 08:35:16;;;;;;;7.28;2.58;;;;;;;;;;5020724;28;20057;-65
2022/08/02 08:37:43;;;;;;;9.93;2.75;;;;;;;;;;5024249;28;20677;-65
2022/08/02 08:40:11;;;;;;;9.07;2.80;;;;;;;;;;5023132;28;20094;-65
2022/08/02 08:42:40;;;;;;;14.52;3.22;;;;;;;;;;5020648;28;20084;-65
2022/08/02 08:45:08;;;;;;;7.68;3.00;;;;;;;;;;5020860;28;20049;-65
2022/08/02 08:47:37;;;;;;;9.80;2.72;;;;;;;;;;5015595;28;20057;-65
2022/08/02 08:50:05;;;;;;;10.32;3.00;;;;;;;;;;5014988;28;20541;-65
2022/08/02 08:52:35;;;;;;;9.02;2.83;;;;;;;;;;5021251;28;20053;-65
2022/08/02 08:55:04;;;;;;;7.40;2.85;;;;;;;;;;5019133;28;20054;-65
2022/08/02 08:57:31;;;;;;;8.18;2.60;;;;;;;;;;5024570;28;20524;-65
2022/08/02 09:00:00;;;;;;;10.70;2.85;;;;;;;;;;5023698;28;20178;-65
2022/08/02 09:02:27;;;;;;;8.23;2.78;;;;;;;;;;5023618;28;20530;-65
2022/08/02 09:04:54;;;;;;;7.55;2.95;;;;;;;;;;5020197;28;20061;-65
2022/08/02 09:07:22;;;;;;;8.25;2.92;;;;;;;;;;5024105;28;20103;-65
2022/08/02 09:09:49;;;;;;;6.32;2.63;;;;;;;;;;5016925;28;20072;-65
2022/08/02 09:12:18;;;;;;;6.47;2.47;;;;;;;;;;5022614;28;20052;-65
2022/08/02 09:14:46;;;;;;;9.20;2.83;;;;;;;;;;5021674;28;20045;-65
2022/08/02 09:17:15;;;;;;;8.52;3.20;;;;;;;;;;5025112;28;20053;-65
2022/08/02 09:19:42;;;;;;;12.02;3.10;;;;;;;;;;5022353;28;20164;-65
2022/08/02 09:22:10;;;;;;;6.50;3.33;;;;;;;;;;5023581;28;20489;-65
2022/08/02 09:24:44;;;;;;;8.52;3.53;;;;;;;;;;5019072;28;20053;-65
2022/08/02 09:27:13;;;;;;;8.52;3.70;;;;;;;;;;5022875;28;20132;-65
2022/08/02 09:29:40;;;;;;;11.05;4.07;;;;;;;;;;5017135;28;20062;-65
2022/08/02 09:32:08;;;;;;;10.98;4.20;;;;;;;;;;5018529;28;20050;-65
2022/08/02 09:34:50;;;;;;;9.90;3.95;;;;;;;;;;5023569;28;20081;-65
2022/08/02 09:37:27;;;;;;;8.98;4.85;;;;;;;;;;5023548;28;20049;-65
2022/08/02 09:39:55;;;;;;;11.15;5.70;;;;;;;;;;5017583;28;20433;-65
2022/08/02 09:42:22;;;;;;;9.60;5.32;;;;;;;;;;5024489;28;20099;-66
2022/08/02 09:44:56;;;;;;;10.77;5.38;;;;;;;;;;5023222;28;20045;-65
2022/08/02 09:47:24;;;;;;;8.48;5.07;;;;;;;;;;5020193;28;20069;-65
2022/08/02 09:49:54;;;;;;;8.43;5.10;;;;;;;;;;5016622;28;20085;-65
2022/08/02 09:52:27;;;;;;;10.57;4.95;;;;;;;;;;5018344;28;20168;-65
2022/08/02 09:54:55;;;;;;;6.80;4.50;;;;;;;;;;5005029;28;20115;-66
2022/08/02 09:57:28;;;;;;;13.82;5.78;;;;;;;;;;5017132;28;20081;-65
2022/08/02 09:59:56;;;;;;;10.75;5.53;;;;;;;;;;5018053;28;20061;-65
2022/08/02 10:02:24;;;;;;;10.98;5.05;;;;;;;;;;5022415;28;20128;-66
2022/08/02 10:04:52;;;;;;;13.00;5.35;;;;;;;;;;5020612;28;20034;-65
2022/08/02 10:07:20;;;;;;;9.25;5.30;;;;;;;;;;5004840;28;20132;-65
2022/08/02 10:09:47;;;;;;;8.75;5.53;;;;;;;;;;5021525;28;20499;-65
2022/08/02 10:12:15;;;;;;;9.45;5.78;;;;;;;;;;5017993;28;20060;-65
2022/08/02 10:14:43;;;;;;;8.07;5.80;;;;;;;;;;5022546;28;20053;-65
2022/08/02 10:17:10;;;;;;;11.30;5.57;;;;;;;;;;5016518;28;20074;-65
2022/08/02 10:19:38;;;;;;;9.23;6.07;;;;;;;;;;4994221;28;20058;-65
2022/08/02 10:22:09;;;;;;;13.15;6.13;;;;;;;;;;5002996;28;20152;-64
2022/08/02 10:24:38;;;;;;;11.38;6.95;;;;;;;;;;5020080;28;20049;-65
2022/08/02 10:27:07;;;;;;;10.07;7.05;;;;;;;;;;5014783;28;20141;-65
2022/08/02 10:29:35;;;;;;;10.48;7.30;;;;;;;;;;5017156;28;20053;-65
2022/08/02 10:32:04;;;;;;;13.70;8.52;;;;;;;;;;5018639;28;20111;-65
2022/08/02 10:34:33;;;;;;;13.07;8.20;;;;;;;;;;5022876;28;20065;-65
2022/08/02 10:37:02;;;;;;;12.93;7.85;;;;;;;;;;5006001;28;20064;-65
2022/08/02 10:39:38;;;;;;;14.57;7.35;;;;;;;;;;5026062;28;20049;-65
2022/08/02 10:42:05;;;;;;;15.80;8.48;;;;;;;;;;5026543;28;20049;-65
2022/08/02 10:44:33;;;;;;;15.43;10.05;;;;;;;;;;5027450;28;20515;-65
2022/08/02 10:47:20;;;;;;;15.63;9.25;;;;;;;;;;5019888;28;20050;-65
2022/08/02 10:49:51;;;;;;;15.15;9.45;;;;;;;;;;5018943;28;20132;-65
2022/08/02 10:52:21;;;;;;;17.67;9.35;;;;;;;;;;5006959;28;20061;-65
2022/08/02 10:54:51;;;;;;;12.93;9.00;;;;;;;;;;5028114;28;20123;-65
2022/08/02 10:57:19;;;;;;;16.67;9.68;;;;;;;;;;5020872;28;20050;-65
2022/08/02 10:59:47;;;;;;;12.63;9.10;;;;;;;;;;5021583;28;20103;-65
2022/08/02 11:02:14;;;;;;;14.38;10.40;;;;;;;;;;5025723;28;20056;-65
2022/08/02 11:05:12;;;;;;;14.13;9.77;;;;;;;;;;5027758;28;20049;-65
2022/08/02 11:07:41;;;;;;;14.73;9.70;;;;;;;;;;4925653;29;20060;-65
2022/08/02 11:10:26;;;;;;;13.60;8.20;;;;;;;;;;5000726;28;20504;-65
2022/08/02 11:13:02;;;;;;;13.70;8.35;;;;;;;;;;5024408;28;20119;-65
2022/08/02 11:15:29;;;;;;;12.15;9.15;;;;;;;;;;5022007;28;20048;-65
2022/08/02 11:17:57;;;;;;;14.55;9.23;;;;;;;;;;5022753;28;20053;-65
2022/08/02 11:20:25;;;;;;;16.80;10.65;;;;;;;;;;5024321;28;20136;-65
2022/08/02 11:22:53;;;;;;;18.42;10.15;;;;;;;;;;5016899;28;20123;-65
2022/08/02 11:25:36;;;;;;;17.90;10.50;;;;;;;;;;5023566;28;20358;-66
2022/08/02 11:28:12;;;;;;;15.73;10.73;;;;;;;;;;5023978;28;20049;-65
2022/08/02 11:30:39;;;;;;;13.95;9.70;;;;;;;;;;5020112;28;20045;-65
2022/08/02 11:33:07;;;;;;;17.35;9.73;;;;;;;;;;5026250;28;20049;-65
2022/08/02 11:35:35;;;;;;;16.55;10.30;;;;;;;;;;5020834;28;20061;-65
2022/08/02 11:38:15;;;;;;;14.93;10.75;;;;;;;;;;5018701;28;20049;-65
2022/08/02 11:40:43;;;;;;;15.38;10.90;;;;;;;;;;5017897;28;20497;-65
2022/08/02 11:43:19;;;;;;;17.50;10.88;;;;;;;;;;5022513;28;20041;-65
2022/08/02 11:45:46;;;;;;;16.27;11.35;;;;;;;;;;5019805;28;20506;-65
2022/08/02 11:48:13;;;;;;;16.13;11.85;;;;;;;;;;5021373;28;20091;-65
2022/08/02 11:50:41;;;;;;;15.55;12.00;;;;;;;;;;5007452;28;20060;-64
2022/08/02 11:53:15;;;;;;;17.95;12.25;;;;;;;;;;5022622;28;20053;-65
2022/08/02 11:55:42;;;;;;;19.20;11.90;;;;;;;;;;5023695;28;20046;-66
2022/08/02 11:58:10;;;;;;;23.92;12.05;;;;;;;;;;5018761;28;20045;-65
2022/08/02 12:00:39;;;;;;;16.75;11.93;;;;;;;;;;5024464;28;20053;-65
2022/08/02 12:03:08;;;;;;;19.15;11.32;;;;;;;;;;5016762;28;20081;-65
2022/08/02 12:05:35;;;;;;;18.55;12.27;;;;;;;;;;5024144;28;20092;-65
2022/08/02 12:08:06;;;;;;;21.83;12.35;;;;;;;;;;5024052;28;20723;-65
2022/08/02 12:10:33;;;;;;;19.45;12.32;;;;;;;;;;5023651;28;20053;-65
2022/08/02 12:13:01;;;;;;;20.35;12.38;;;;;;;;;;5021773;28;20582;-65
2022/08/02 12:15:32;;;;;;;17.48;12.02;;;;;;;;;;5021458;28;20049;-65
2022/08/02 12:20:46;;;;;;;15.18;12.23;;;;;;;;;;5018954;28;20045;-64
2022/08/02 12:23:14;;;;;;;18.13;11.20;;;;;;;;;;4999184;28;20061;-64
2022/08/02 12:25:41;;;;;;;19.50;11.70;;;;;;;;;;5019065;28;20053;-65
2022/08/02 12:28:21;;;;;;;18.52;12.05;;;;;;;;;;5022164;28;20209;-65
2022/08/02 12:30:52;;;;;;;20.33;11.93;;;;;;;;;;5023826;28;20519;-65
2022/08/02 12:33:21;;;;;;;16.67;12.35;;;;;;;;;;5021139;28;20489;-65
2022/08/02 12:35:48;;;;;;;15.45;11.00;;;;;;;;;;5016303;28;20482;-65
2022/08/02 12:38:15;;;;;;;17.67;12.55;;;;;;;;;;5021644;28;20052;-65
2022/08/02 12:40:43;;;;;;;16.40;11.60;;;;;;;;;;5021208;28;20442;-65
2022/08/02 12:43:17;;;;;;;16.02;10.27;;;;;;;;;;5016125;28;20049;-65
2022/08/02 12:45:49;;;;;;;14.68;10.68;;;;;;;;;;5021134;28;20455;-65
2022/08/02 12:48:17;;;;;;;16.25;10.50;;;;;;;;;;5004384;28;20128;-65
2022/08/02 12:50:46;;;;;;;17.17;11.20;;;;;;;;;;5022767;28;20056;-65
2022/08/02 12:53:14;;;;;;;16.60;10.20;;;;;;;;;;5018994;28;20072;-65
2022/08/02 12:55:49;;;;;;;12.32;10.23;;;;;;;;;;5026388;28;20045;-65
2022/08/02 12:58:17;;;;;;;14.13;10.32;;;;;;;;;;5015957;28;20060;-66
2022/08/02 13:00:52;;;;;;;15.00;10.35;;;;;;;;;;5020963;28;20064;-65
2022/08/02 13:03:19;;;;;;;13.20;8.68;;;;;;;;;;5018783;28;20041;-65
2022/08/02 13:05:48;;;;;;;11.90;6.53;;;;;;;;;;5003391;28;20069;-65
2022/08/02 13:08:16;;;;;;;10.68;6.45;;;;;;;;;;5022792;28;20057;-66
2022/08/02 13:10:43;;;;;;;10.98;5.93;;;;;;;;;;5020692;28;20045;-65
2022/08/02 13:13:11;;;;;;;12.60;6.35;;;;;;;;;;5024446;28;20053;-65
2022/08/02 13:15:38;;;;;;;13.45;6.78;;;;;;;;;;5019227;28;20045;-65
2022/08/02 13:18:05;;;;;;;9.25;6.03;;;;;;;;;;5017329;28;20111;-65
2022/08/02 13:20:33;;;;;;;9.55;6.68;;;;;;;;;;4999599;28;20061;-65
2022/08/02 13:23:01;;;;;;;8.93;6.10;;;;;;;;;;5017855;28;20485;-64
2022/08/02 13:25:28;;;;;;;7.70;4.50;;;;;;;;;;5017784;28;20096;-64
2022/08/02 13:27:56;;;;;;;9.23;4.90;;;;;;;;;;5025290;28;20072;-65
2022/08/02 13:30:23;;;;;;;7.97;4.57;;;;;;;;;;5003620;28;20052;-65
2022/08/02 13:32:50;;;;;;;11.48;5.25;;;;;;;;;;5019378;28;20041;-65
2022/08/02 13:35:17;;;;;;;8.82;4.78;;;;;;;;;;5019809;28;20053;-65
2022/08/02 13:37:46;;;;;;;9.27;4.63;;;;;;;;;;5004518;28;20531;-66
2022/08/02 13:40:15;;;;;;;7.45;4.50;;;;;;;;;;5022633;28;20141;-65
2022/08/02 13:42:42;;;;;;;7.90;3.63;;;;;;;;;;5023536;28;20054;-65
2022/08/02 13:45:09;;;;;;;5.45;3.22;;;;;;;;;;5022284;28;20053;-65
2022/08/02 13:47:38;;;;;;;4.97;3.22;;;;;;;;;;5018952;28;20408;-65
2022/08/02 13:50:06;;;;;;;8.38;3.60;;;;;;;;;;5023178;28;20400;-65
2022/08/02 13:52:33;;;;;;;9.60;4.10;;;;;;;;;;5020971;28;20467;-65
2022/08/02 13:55:00;;;;;;;8.20;3.85;;;;;;;;;;5017525;28;20054;-66
2022/08/02 13:57:29;;;;;;;14.60;3.97;;;;;;;;;;5021039;28;20052;-65
2022/08/02 13:59:57;;;;;;;13.75;4.25;;;;;;;;;;5023175;28;20045;-65
2022/08/02 14:02:24;;;;;;;6.70;3.80;;;;;;;;;;5021184;28;20061;-65
2022/08/02 14:04:51;;;;;;;8.85;3.72;;;;;;;;;;5019307;28;20053;-65
2022/08/02 14:07:18;;;;;;;7.93;3.53;;;;;;;;;;5021095;28;20060;-65
2022/08/02 14:09:45;;;;;;;8.88;3.50;;;;;;;;;;5021120;28;20056;-65
2022/08/02 14:12:13;;;;;;;7.32;3.50;;;;;;;;;;5018633;28;20049;-65
2022/08/02 14:14:41;;;;;;;11.55;3.38;;;;;;;;;;5025691;28;20049;-65
2022/08/02 14:17:10;;;;;;;8.98;3.60;;;;;;;;;;5008688;28;20057;-65
2022/08/02 14:19:37;;;;;;;10.98;3.88;;;;;;;;;;5004365;28;20045;-65
2022/08/02 14:22:04;;;;;;;6.10;3.13;;;;;;;;;;5019416;28;20057;-65
2022/08/02 14:24:32;;;;;;;7.70;3.00;;;;;;;;;;5023645;28;20057;-65
2022/08/02 14:26:59;;;;;;;7.70;2.30;;;;;;;;;;5024015;28;20049;-65
2022/08/02 14:29:26;;;;;;;9.68;2.80;;;;;;;;;;5027663;28;20041;-65
2022/08/02 14:31:54;;;;;;;5.90;2.40;;;;;;;;;;5020606;28;20046;-65
2022/08/02 14:34:22;;;;;;;5.15;2.15;;;;;;;;;;5019302;28;20045;-65
2022/08/02 14:36:49;;;;;;;7.57;2.15;;;;;;;;;;5023023;28;20771;-65
2022/08/02 14:39:17;;;;;;;5.30;2.30;;;;;;;;;;5023195;28;20046;-65
2022/08/02 14:41:44;;;;;;;6.18;1.80;;;;;;;;;;5026633;28;20956;-66
2022/08/02 14:44:11;;;;;;;5.05;2.03;;;;;;;;;;5025670;28;20045;-65
2022/08/02 14:46:40;;;;;;;6.05;1.80;;;;;;;;;;5022185;28;20045;-65
2022/08/02 14:49:09;;;;;;;6.13;2.30;;;;;;;;;;5028353;28;20087;-65